Time;durP1;ratioP1;P1;durP2;ratioP2;P2;SDS_P1;SDS_P2;PMS_P1;PMS_P2;Temp;Humidity;BMP_temperature;BMP_pressure;BME280_temperature;BME280_humidity;BME280_pressure;Samples;Min_cycle;Max_cycle;Signal;HPM_P1;HPM_P2
2022/10/15 00:00:33;;;;;;;55.67;37.05;;;12.20;99.90;;;;;;5118465;27;20404;-86
2022/10/15 00:02:59;;;;;;;62.47;41.10;;;12.80;99.90;;;;;;5102050;27;20108;-81
2022/10/15 00:05:25;;;;;;;56.58;37.90;;;12.20;99.90;;;;;;5114096;27;20433;-80
2022/10/15 00:07:51;;;;;;;62.13;41.80;;;12.20;99.90;;;;;;5113855;27;20040;-84
2022/10/15 00:10:17;;;;;;;57.53;38.20;;;12.10;99.90;;;;;;5118845;27;20036;-85
2022/10/15 00:12:42;;;;;;;56.55;39.50;;;12.20;99.90;;;;;;5125745;27;20528;-85
2022/10/15 00:15:09;;;;;;;54.30;36.83;;;12.80;99.90;;;;;;5130566;27;20035;-85
2022/10/15 00:17:36;;;;;;;55.80;37.40;;;12.20;99.90;;;;;;5127324;27;20043;-87
2022/10/15 00:20:04;;;;;;;54.47;37.33;;;12.20;99.90;;;;;;5128350;27;20046;-82
2022/10/15 00:22:30;;;;;;;64.50;41.42;;;12.20;99.90;;;;;;5122662;27;20039;-84
2022/10/15 00:24:56;;;;;;;54.55;38.47;;;13.70;99.90;;;;;;5088597;27;20034;-85
2022/10/15 00:27:21;;;;;;;49.60;34.80;;;12.20;99.90;;;;;;5112965;27;20087;-87
2022/10/15 00:29:47;;;;;;;64.32;42.30;;;12.10;99.90;;;;;;5118429;27;20043;-86
2022/10/15 00:32:13;;;;;;;52.15;37.22;;;12.20;99.90;;;;;;5104939;27;20137;-80
2022/10/15 00:34:39;;;;;;;73.97;45.00;;;12.20;99.90;;;;;;5128024;27;20471;-81
2022/10/15 00:37:05;;;;;;;61.72;41.78;;;12.20;99.90;;;;;;5130354;27;20047;-80
2022/10/15 00:39:30;;;;;;;56.20;38.55;;;12.10;99.90;;;;;;5111030;27;20081;-80
2022/10/15 00:41:56;;;;;;;51.90;37.33;;;13.60;99.90;;;;;;5129552;27;20093;-80
2022/10/15 00:44:28;;;;;;;51.28;38.28;;;12.10;99.90;;;;;;5129067;27;20046;-80
2022/10/15 00:47:16;;;;;;;50.22;37.92;;;12.10;99.90;;;;;;5126671;27;20043;-82
2022/10/15 00:49:53;;;;;;;56.50;36.45;;;11.60;99.90;;;;;;5115373;27;20142;-79
2022/10/15 00:52:25;;;;;;;53.88;37.33;;;12.10;99.90;;;;;;5117346;27;20074;-79
2022/10/15 00:55:17;;;;;;;48.03;35.20;;;12.70;99.90;;;;;;5123560;27;20043;-83
2022/10/15 00:57:45;;;;;;;62.35;39.58;;;12.70;99.90;;;;;;5113983;27;20043;-85
2022/10/15 01:00:14;;;;;;;50.53;36.05;;;11.40;99.90;;;;;;5096525;27;20063;-85
2022/10/15 01:02:41;;;;;;;45.00;34.13;;;12.10;99.90;;;;;;5120796;27;20035;-80
2022/10/15 01:05:07;;;;;;;60.65;37.20;;;12.10;99.90;;;;;;5101217;28;20041;-86
2022/10/15 01:07:33;;;;;;;69.60;43.13;;;12.10;99.90;;;;;;5115449;27;20043;-81
2022/10/15 01:10:00;;;;;;;45.95;36.30;;;12.10;99.90;;;;;;5094063;28;20058;-80
2022/10/15 01:12:31;;;;;;;47.20;34.95;;;12.00;99.90;;;;;;5096479;28;20044;-80
2022/10/15 01:14:57;;;;;;;53.08;36.78;;;12.10;99.90;;;;;;5101469;27;20044;-79
2022/10/15 01:17:25;;;;;;;54.10;37.42;;;12.10;99.90;;;;;;5126799;27;20043;-81
2022/10/15 01:20:19;;;;;;;52.33;36.30;;;12.10;99.90;;;;;;5121392;27;20072;-80
2022/10/15 01:23:07;;;;;;;46.97;34.95;;;12.10;99.90;;;;;;5121031;27;20554;-81
2022/10/15 01:26:35;;;;;;;48.08;35.15;;;12.10;99.90;;;;;;5101078;28;20513;-79
2022/10/15 01:29:30;;;;;;;46.05;33.78;;;12.10;99.90;;;;;;5034395;28;20053;-81
2022/10/15 01:32:24;;;;;;;43.47;33.47;;;12.10;99.90;;;;;;5104422;27;20055;-80
2022/10/15 01:35:01;;;;;;;52.13;34.28;;;12.10;99.90;;;;;;5118486;27;20067;-78
2022/10/15 01:37:40;;;;;;;45.80;33.25;;;12.10;99.90;;;;;;5121269;27;20071;-82
2022/10/15 01:40:19;;;;;;;50.50;35.60;;;12.10;99.90;;;;;;5125595;27;20039;-79
2022/10/15 01:42:57;;;;;;;53.55;35.13;;;12.00;99.90;;;;;;5124067;27;20426;-79
2022/10/15 01:45:38;;;;;;;47.03;33.22;;;12.00;99.90;;;;;;5117725;27;20097;-85
2022/10/15 01:48:10;;;;;;;52.28;35.35;;;12.10;99.90;;;;;;5085854;27;20035;-80
2022/10/15 01:50:41;;;;;;;49.97;35.00;;;12.10;99.90;;;;;;5115016;27;20074;-81
2022/10/15 01:53:09;;;;;;;49.05;34.55;;;12.10;99.90;;;;;;5117290;27;20058;-85
2022/10/15 01:55:40;;;;;;;52.72;34.80;;;12.00;99.90;;;;;;5097516;28;20404;-84
2022/10/15 01:58:08;;;;;;;51.70;33.67;;;13.50;99.90;;;;;;5122146;27;20408;-84
2022/10/15 02:00:34;;;;;;;50.60;34.40;;;13.50;99.90;;;;;;5097394;28;20446;-80
2022/10/15 02:03:01;;;;;;;54.10;34.97;;;12.00;99.90;;;;;;5114665;27;20043;-80
2022/10/15 02:05:39;;;;;;;44.22;32.95;;;12.00;99.90;;;;;;5130908;27;20114;-81
2022/10/15 02:08:14;;;;;;;51.13;33.22;;;11.50;99.90;;;;;;5126741;27;20058;-83
2022/10/15 02:10:58;;;;;;;48.63;34.67;;;12.00;99.90;;;;;;5100233;28;20061;-85
2022/10/15 02:13:32;;;;;;;47.78;32.92;;;11.90;99.90;;;;;;5107873;27;20038;-80
2022/10/15 02:16:26;;;;;;;49.83;33.55;;;12.00;99.90;;;;;;5103203;27;20035;-87
2022/10/15 02:19:38;;;;;;;51.03;31.90;;;12.00;99.90;;;;;;5112984;27;20036;-83
2022/10/15 02:22:07;;;;;;;48.72;32.72;;;11.90;99.90;;;;;;5115519;27;20050;-84
2022/10/15 02:24:41;;;;;;;51.40;31.70;;;13.00;99.90;;;;;;5116648;27;20082;-82
2022/10/15 02:27:09;;;;;;;52.67;34.35;;;11.90;99.90;;;;;;5087112;28;20152;-85
2022/10/15 02:29:37;;;;;;;46.97;33.72;;;11.90;99.90;;;;;;5079127;28;20086;-86
2022/10/15 02:32:04;;;;;;;47.40;33.22;;;13.10;99.90;;;;;;5098175;28;20152;-85
2022/10/15 02:34:35;;;;;;;62.28;36.40;;;12.00;99.90;;;;;;5087284;28;20225;-81
2022/10/15 02:37:03;;;;;;;57.78;34.25;;;11.90;99.90;;;;;;5080038;28;20047;-81
2022/10/15 02:39:29;;;;;;;50.72;36.13;;;12.00;99.90;;;;;;5099870;27;20074;-81
2022/10/15 02:41:56;;;;;;;45.10;32.97;;;12.00;99.90;;;;;;5097616;28;20044;-80
2022/10/15 02:44:22;;;;;;;51.38;32.45;;;12.00;99.90;;;;;;5074252;28;20038;-82
2022/10/15 02:46:48;;;;;;;48.13;34.28;;;12.00;99.90;;;;;;5095591;28;20048;-80
2022/10/15 02:49:13;;;;;;;48.35;34.25;;;13.50;99.90;;;;;;5090130;28;20040;-82
2022/10/15 02:51:42;;;;;;;45.60;32.33;;;11.90;99.90;;;;;;5093576;28;20164;-84
2022/10/15 02:54:09;;;;;;;49.28;32.28;;;12.00;99.90;;;;;;5079262;28;20040;-86
2022/10/15 02:56:37;;;;;;;49.70;33.33;;;11.90;99.90;;;;;;5089584;28;20042;-86
2022/10/15 02:59:04;;;;;;;47.42;32.33;;;12.10;99.90;;;;;;5096818;28;20514;-84
2022/10/15 03:01:31;;;;;;;49.88;33.83;;;13.10;99.90;;;;;;5087014;28;20119;-84
2022/10/15 03:03:56;;;;;;;55.00;34.75;;;13.80;99.90;;;;;;5078154;28;20093;-84
2022/10/15 03:06:22;;;;;;;47.72;34.00;;;13.30;99.90;;;;;;5097354;28;20032;-83
2022/10/15 03:08:48;;;;;;;48.95;33.33;;;13.60;99.90;;;;;;5074975;28;20047;-84
2022/10/15 03:11:14;;;;;;;54.90;34.13;;;11.90;99.90;;;;;;5095900;28;20059;-84
2022/10/15 03:13:40;;;;;;;49.42;32.65;;;11.80;99.90;;;;;;5093321;28;20086;-84
2022/10/15 03:16:08;;;;;;;45.17;31.40;;;12.90;99.90;;;;;;5095304;28;20429;-79
2022/10/15 03:18:34;;;;;;;49.88;33.38;;;11.90;99.90;;;;;;5090684;28;20047;-78
2022/10/15 03:21:00;;;;;;;45.45;32.38;;;13.50;99.90;;;;;;5095508;28;20036;-80
2022/10/15 03:23:26;;;;;;;52.35;33.13;;;11.80;99.90;;;;;;5103491;28;20051;-79
2022/10/15 03:25:53;;;;;;;47.28;33.55;;;11.90;99.90;;;;;;5099668;28;20044;-79
2022/10/15 03:28:19;;;;;;;42.05;32.90;;;11.80;99.90;;;;;;5117566;27;20422;-82
2022/10/15 03:30:47;;;;;;;49.28;33.22;;;11.90;99.90;;;;;;5129368;27;20058;-80
2022/10/15 03:33:13;;;;;;;48.90;34.47;;;13.20;99.90;;;;;;5105117;27;20047;-80
2022/10/15 03:35:39;;;;;;;52.90;33.70;;;11.80;99.90;;;;;;5105547;28;20040;-81
2022/10/15 03:38:06;;;;;;;49.40;33.88;;;11.90;99.90;;;;;;5102859;27;20433;-79
2022/10/15 03:40:32;;;;;;;53.42;33.90;;;13.10;99.90;;;;;;5127756;27;20505;-79
2022/10/15 03:42:58;;;;;;;50.33;34.28;;;11.90;99.90;;;;;;5127624;27;20510;-81
2022/10/15 03:45:24;;;;;;;50.95;33.40;;;11.90;99.90;;;;;;5132432;27;20031;-80
2022/10/15 03:47:50;;;;;;;52.67;35.25;;;11.90;99.90;;;;;;5097963;27;20043;-80
2022/10/15 03:50:16;;;;;;;54.83;35.75;;;13.20;99.90;;;;;;5124712;27;20391;-80
2022/10/15 03:52:41;;;;;;;46.65;33.20;;;11.80;99.90;;;;;;5100007;28;20483;-79
2022/10/15 03:55:08;;;;;;;50.42;34.72;;;11.90;99.90;;;;;;5112894;27;20034;-80
2022/10/15 03:57:35;;;;;;;59.03;36.90;;;12.60;99.90;;;;;;5118686;27;20441;-79
2022/10/15 04:00:02;;;;;;;48.88;34.13;;;12.60;99.90;;;;;;5094762;28;20036;-79
2022/10/15 04:02:30;;;;;;;56.30;35.05;;;11.80;99.90;;;;;;5112316;28;20725;-85
2022/10/15 04:04:56;;;;;;;50.33;33.65;;;11.90;99.90;;;;;;5105663;27;20074;-82
2022/10/15 04:07:22;;;;;;;55.85;35.03;;;13.20;99.90;;;;;;5128934;27;20046;-83
2022/10/15 04:09:51;;;;;;;60.28;37.55;;;13.00;99.90;;;;;;5116817;27;20039;-82
2022/10/15 04:12:17;;;;;;;55.90;35.80;;;11.80;99.90;;;;;;5123923;27;20042;-85
2022/10/15 04:14:42;;;;;;;67.93;39.17;;;13.00;99.90;;;;;;5108617;28;20453;-87
2022/10/15 04:17:08;;;;;;;71.38;38.00;;;12.80;99.90;;;;;;5096181;27;20047;-85
2022/10/15 04:19:34;;;;;;;55.78;34.70;;;11.60;99.90;;;;;;5113272;27;20398;-85
2022/10/15 04:21:59;;;;;;;56.85;35.83;;;13.40;99.90;;;;;;5126122;27;20039;-82
2022/10/15 04:24:25;;;;;;;49.17;34.70;;;12.40;99.90;;;;;;5100304;27;20043;-81
2022/10/15 04:26:51;;;;;;;58.33;36.80;;;11.80;99.90;;;;;;5128161;27;20050;-82
2022/10/15 04:29:17;;;;;;;51.33;35.53;;;11.80;99.90;;;;;;5106852;27;20520;-82
2022/10/15 04:31:43;;;;;;;58.30;36.53;;;11.80;99.90;;;;;;5127301;27;20038;-83
2022/10/15 04:34:09;;;;;;;61.50;35.92;;;11.80;99.90;;;;;;5133081;27;20063;-82
2022/10/15 04:36:35;;;;;;;56.97;35.05;;;11.80;99.90;;;;;;5129873;27;20123;-81
2022/10/15 04:39:01;;;;;;;47.45;33.53;;;12.70;99.90;;;;;;5125087;27;20039;-81
2022/10/15 04:41:27;;;;;;;54.35;36.45;;;11.80;99.90;;;;;;5132848;27;20074;-82
2022/10/15 04:43:54;;;;;;;50.17;33.45;;;11.80;99.90;;;;;;5108523;27;20522;-82
2022/10/15 04:46:21;;;;;;;54.53;35.20;;;11.80;99.90;;;;;;5132201;27;20078;-82
2022/10/15 04:48:47;;;;;;;51.78;35.35;;;11.80;99.90;;;;;;5143194;27;20051;-80
2022/10/15 04:51:19;;;;;;;48.42;33.40;;;11.80;99.90;;;;;;5113070;27;20050;-82
2022/10/15 04:53:45;;;;;;;63.05;35.65;;;13.20;99.90;;;;;;5124994;27;20050;-81
2022/10/15 04:56:17;;;;;;;49.95;34.75;;;13.00;99.90;;;;;;5145175;27;20124;-82
2022/10/15 04:58:45;;;;;;;70.13;39.55;;;13.10;99.90;;;;;;5121874;27;20791;-81
2022/10/15 05:01:13;;;;;;;56.60;35.83;;;11.80;99.90;;;;;;5113381;27;20039;-82
2022/10/15 05:03:40;;;;;;;66.53;36.10;;;11.80;99.90;;;;;;5124507;27;20058;-80
2022/10/15 05:06:10;;;;;;;56.50;36.03;;;11.80;99.90;;;;;;5124795;27;20126;-82
2022/10/15 05:08:37;;;;;;;58.47;37.22;;;11.80;99.90;;;;;;5139135;27;20035;-81
2022/10/15 05:11:07;;;;;;;57.13;35.35;;;11.80;99.90;;;;;;5121751;27;20035;-82
2022/10/15 05:13:34;;;;;;;52.42;35.10;;;11.60;99.90;;;;;;5121612;27;20474;-81
2022/10/15 05:16:09;;;;;;;58.70;36.65;;;12.10;99.90;;;;;;5120808;27;20592;-83
2022/10/15 05:18:34;;;;;;;;;;;11.70;99.90;;;;;;5127938;27;20035;-82
2022/10/15 05:21:00;;;;;;;53.80;34.03;;;12.90;99.90;;;;;;5120940;27;20378;-82
2022/10/15 05:23:26;;;;;;;53.88;35.45;;;13.00;99.90;;;;;;5111522;27;20035;-82
2022/10/15 05:25:52;;;;;;;61.22;35.00;;;11.90;99.90;;;;;;5145894;27;20068;-82
2022/10/15 05:28:18;;;;;;;57.53;36.38;;;11.80;99.90;;;;;;5096103;27;20052;-82
2022/10/15 05:30:44;;;;;;;58.45;36.80;;;11.70;99.90;;;;;;5120446;27;20130;-85
2022/10/15 05:33:10;;;;;;;55.97;36.95;;;11.80;99.90;;;;;;5101302;28;20364;-81
2022/10/15 05:35:36;;;;;;;58.42;37.28;;;11.80;99.90;;;;;;5128151;27;20079;-81
2022/10/15 05:38:03;;;;;;;62.45;38.97;;;11.80;99.90;;;;;;5129148;27;20031;-83
2022/10/15 05:40:29;;;;;;;54.22;37.92;;;13.20;99.90;;;;;;5098979;27;20499;-82
2022/10/15 05:42:55;;;;;;;63.50;39.08;;;12.00;99.90;;;;;;5129613;27;20045;-85
2022/10/15 05:45:23;;;;;;;58.40;38.65;;;13.00;99.90;;;;;;5124868;27;20039;-83
2022/10/15 05:47:53;;;;;;;59.35;38.40;;;11.70;99.90;;;;;;5126051;27;20186;-84
2022/10/15 05:50:19;;;;;;;69.15;42.22;;;11.70;99.90;;;;;;5120896;27;20118;-86
2022/10/15 05:52:44;;;;;;;64.93;41.13;;;12.90;99.90;;;;;;5115639;27;20122;-85
2022/10/15 05:55:10;;;;;;;70.88;42.78;;;11.70;99.90;;;;;;5120950;27;20386;-85
2022/10/15 05:57:35;;;;;;;66.18;42.67;;;11.70;99.90;;;;;;5126952;27;20349;-82
2022/10/15 06:00:04;;;;;;;70.13;43.63;;;11.70;99.90;;;;;;5127039;27;20056;-82
2022/10/15 06:02:30;;;;;;;82.30;48.25;;;11.70;99.90;;;;;;5127281;27;20099;-83
2022/10/15 06:04:56;;;;;;;62.78;40.92;;;11.70;99.90;;;;;;5120134;27;20039;-81
2022/10/15 06:07:21;;;;;;;73.47;44.55;;;11.70;99.90;;;;;;5126269;27;20042;-81
2022/10/15 06:09:47;;;;;;;75.10;46.30;;;12.90;99.90;;;;;;5124583;27;20452;-86
2022/10/15 06:12:12;;;;;;;70.10;45.40;;;13.10;99.90;;;;;;5126161;27;20050;-83
2022/10/15 06:14:38;;;;;;;78.10;47.05;;;11.70;99.90;;;;;;5115867;27;20384;-82
2022/10/15 06:17:04;;;;;;;87.95;50.50;;;13.10;99.90;;;;;;5125564;27;20031;-85
2022/10/15 06:19:29;;;;;;;73.07;46.83;;;11.70;99.90;;;;;;5126953;27;20088;-84
2022/10/15 06:21:55;;;;;;;69.93;45.38;;;11.70;99.90;;;;;;5125579;27;20418;-85
2022/10/15 06:24:20;;;;;;;77.88;47.25;;;11.80;99.90;;;;;;5127770;27;20110;-87
2022/10/15 06:26:46;;;;;;;80.15;48.40;;;11.70;99.90;;;;;;5131727;27;20035;-81
2022/10/15 06:29:12;;;;;;;66.75;44.50;;;11.80;99.90;;;;;;5130365;27;20038;-82
2022/10/15 06:31:37;;;;;;;69.63;45.38;;;11.70;99.90;;;;;;5126579;27;20046;-81
2022/10/15 06:34:03;;;;;;;67.07;43.90;;;13.10;99.90;;;;;;5147261;27;20053;-80
2022/10/15 06:36:29;;;;;;;69.28;44.83;;;13.20;99.90;;;;;;5125648;27;20440;-82
2022/10/15 06:38:56;;;;;;;67.82;44.67;;;13.00;99.90;;;;;;5128501;27;20067;-80
2022/10/15 06:41:21;;;;;;;72.45;44.40;;;13.50;99.90;;;;;;5123104;27;20095;-82
2022/10/15 06:43:50;;;;;;;72.55;43.90;;;11.60;99.90;;;;;;5106270;27;20042;-82
2022/10/15 06:46:16;;;;;;;66.03;43.13;;;13.30;99.90;;;;;;5102516;27;20039;-83
2022/10/15 06:48:42;;;;;;;67.82;43.67;;;11.70;99.90;;;;;;5127315;27;20287;-81
2022/10/15 06:51:09;;;;;;;70.40;44.33;;;11.70;99.90;;;;;;5134549;27;20041;-80
2022/10/15 06:53:35;;;;;;;71.60;43.97;;;13.10;99.90;;;;;;5117428;27;20058;-83
2022/10/15 06:56:03;;;;;;;72.07;45.42;;;11.70;99.90;;;;;;5116253;27;20088;-81
2022/10/15 06:58:33;;;;;;;91.15;52.72;;;11.80;99.90;;;;;;5121589;27;20043;-80
2022/10/15 07:01:04;;;;;;;72.30;44.75;;;11.70;99.90;;;;;;5125231;27;20485;-82
2022/10/15 07:03:29;;;;;;;91.95;49.55;;;11.70;99.90;;;;;;5100771;27;20090;-82
2022/10/15 07:06:00;;;;;;;77.53;44.42;;;11.80;99.90;;;;;;5100540;27;20074;-82
2022/10/15 07:08:25;;;;;;;78.72;48.20;;;11.80;99.90;;;;;;5102536;27;20043;-81
2022/10/15 07:10:51;;;;;;;81.72;47.10;;;12.00;99.90;;;;;;5121926;27;20061;-84
2022/10/15 07:13:16;;;;;;;72.72;45.90;;;13.10;99.90;;;;;;5121324;27;20038;-84
2022/10/15 07:15:43;;;;;;;76.45;46.72;;;12.90;99.90;;;;;;5118142;27;20044;-82
2022/10/15 07:18:09;;;;;;;80.35;46.88;;;11.80;99.90;;;;;;5101590;28;20043;-81
2022/10/15 07:20:34;;;;;;;81.72;50.53;;;11.80;99.90;;;;;;5129746;27;20371;-83
2022/10/15 07:23:01;;;;;;;80.53;51.50;;;11.80;99.90;;;;;;5144965;27;20042;-81
2022/10/15 07:25:27;;;;;;;81.82;46.15;;;13.00;99.90;;;;;;5148516;27;20509;-82
2022/10/15 07:27:54;;;;;;;78.78;46.53;;;11.80;99.90;;;;;;5144827;27;20516;-81
2022/10/15 07:30:21;;;;;;;79.55;48.08;;;12.20;99.90;;;;;;5103551;27;20075;-82
2022/10/15 07:32:46;;;;;;;78.57;48.78;;;11.80;99.90;;;;;;5144082;27;20536;-82
2022/10/15 07:35:13;;;;;;;81.43;48.75;;;11.80;99.90;;;;;;5103923;28;20047;-83
2022/10/15 07:37:39;;;;;;;82.05;47.92;;;11.90;99.90;;;;;;5101404;27;20498;-83
2022/10/15 07:40:05;;;;;;;76.57;48.22;;;11.90;99.90;;;;;;5131196;27;20047;-82
2022/10/15 07:42:31;;;;;;;81.03;49.20;;;11.90;99.90;;;;;;5139338;27;20482;-82
2022/10/15 07:44:57;;;;;;;80.57;47.97;;;11.90;99.90;;;;;;5103607;28;20039;-82
2022/10/15 07:47:22;;;;;;;82.55;48.40;;;11.90;99.90;;;;;;5146369;27;20039;-84
2022/10/15 07:49:48;;;;;;;84.05;48.15;;;11.90;99.90;;;;;;5101402;27;20472;-84
2022/10/15 07:52:14;;;;;;;84.80;48.13;;;12.00;99.90;;;;;;5092711;28;20035;-83
2022/10/15 07:54:43;;;;;;;95.35;50.13;;;12.00;99.90;;;;;;5118940;27;20474;-82
2022/10/15 07:57:08;;;;;;;99.82;51.25;;;12.00;99.90;;;;;;5124665;27;20115;-82
2022/10/15 07:59:34;;;;;;;88.82;49.28;;;12.00;99.90;;;;;;5119844;27;20448;-82
2022/10/15 08:02:00;;;;;;;89.10;50.95;;;12.10;99.90;;;;;;5098429;27;20397;-82
2022/10/15 08:04:26;;;;;;;79.93;49.55;;;12.20;99.90;;;;;;5096446;27;20039;-81
2022/10/15 08:06:52;;;;;;;81.47;49.47;;;12.10;99.90;;;;;;5104222;28;20061;-83
2022/10/15 08:09:17;;;;;;;85.82;51.17;;;12.10;99.90;;;;;;5142945;27;20115;-81
2022/10/15 08:11:43;;;;;;;86.07;51.15;;;12.20;99.90;;;;;;5116616;27;20334;-81
2022/10/15 08:14:09;;;;;;;92.85;52.30;;;12.20;99.90;;;;;;5121959;27;20888;-82
2022/10/15 08:16:34;;;;;;;82.95;49.03;;;12.80;99.90;;;;;;5112746;27;20043;-84
2022/10/15 08:19:00;;;;;;;90.68;51.45;;;13.80;99.90;;;;;;5146147;27;20051;-83
2022/10/15 08:21:26;;;;;;;81.53;49.55;;;12.30;99.90;;;;;;5113080;27;20050;-82
2022/10/15 08:23:52;;;;;;;108.90;55.88;;;12.40;99.90;;;;;;5144654;27;20038;-83
2022/10/15 08:26:18;;;;;;;86.85;50.65;;;12.40;99.90;;;;;;5147730;27;20031;-81
2022/10/15 08:28:44;;;;;;;83.38;48.40;;;13.00;99.90;;;;;;5148173;27;20054;-81
2022/10/15 08:31:09;;;;;;;82.40;49.55;;;13.70;99.90;;;;;;5120833;27;20145;-83
2022/10/15 08:33:36;;;;;;;102.00;56.28;;;12.50;99.90;;;;;;5131003;27;20061;-82
2022/10/15 08:36:06;;;;;;;80.15;48.35;;;12.50;99.90;;;;;;5102685;27;20067;-81
2022/10/15 08:38:33;;;;;;;85.43;49.83;;;12.50;99.90;;;;;;5131498;27;20047;-82
2022/10/15 08:41:00;;;;;;;80.20;48.88;;;13.70;99.90;;;;;;5132632;27;20035;-81
2022/10/15 08:43:38;;;;;;;80.45;48.10;;;13.80;99.90;;;;;;5148638;27;20046;-81
2022/10/15 08:46:11;;;;;;;81.95;51.00;;;12.60;99.90;;;;;;5127023;27;20438;-81
2022/10/15 08:48:47;;;;;;;84.70;50.63;;;12.60;99.90;;;;;;5105110;27;20046;-84
2022/10/15 08:51:22;;;;;;;84.20;54.10;;;14.10;99.90;;;;;;5122160;27;20070;-81
2022/10/15 08:54:01;;;;;;;81.38;52.50;;;12.70;99.90;;;;;;5143222;27;20039;-81
2022/10/15 08:56:32;;;;;;;82.53;50.60;;;12.70;99.90;;;;;;5147823;27;20039;-81
2022/10/15 08:59:05;;;;;;;88.35;59.40;;;13.90;99.90;;;;;;5144978;27;20073;-84
2022/10/15 09:01:46;;;;;;;85.28;52.75;;;12.70;99.90;;;;;;5146281;27;20030;-81
2022/10/15 09:04:37;;;;;;;73.50;46.70;;;12.70;99.90;;;;;;5108100;27;20039;-83
2022/10/15 09:07:29;;;;;;;78.55;48.47;;;12.70;99.90;;;;;;5108910;27;20550;-80
2022/10/15 09:10:26;;;;;;;70.70;45.20;;;12.70;99.90;;;;;;5105377;27;20031;-80
2022/10/15 09:12:59;;;;;;;67.55;43.80;;;12.70;99.90;;;;;;5127196;27;20047;-82
2022/10/15 09:15:31;;;;;;;73.00;46.15;;;12.70;99.90;;;;;;5127598;27;20559;-82
2022/10/15 09:17:56;;;;;;;78.13;47.20;;;13.40;99.90;;;;;;5125583;27;20062;-84
2022/10/15 09:20:31;;;;;;;66.28;43.53;;;12.80;99.90;;;;;;5125262;27;20555;-82
2022/10/15 09:22:57;;;;;;;70.93;42.50;;;12.90;99.90;;;;;;5143579;27;20113;-81
2022/10/15 09:25:27;;;;;;;65.80;42.17;;;12.80;99.90;;;;;;5151402;27;20156;-83
2022/10/15 09:27:54;;;;;;;71.60;44.25;;;12.80;99.90;;;;;;5128471;27;20486;-81
2022/10/15 09:30:25;;;;;;;56.55;37.65;;;14.20;99.90;;;;;;5108018;27;20047;-82
2022/10/15 09:32:59;;;;;;;60.75;39.22;;;12.90;99.90;;;;;;5111153;27;20076;-81
2022/10/15 09:35:34;;;;;;;62.97;38.72;;;14.40;99.90;;;;;;5106072;27;20038;-81
2022/10/15 09:38:37;;;;;;;51.20;34.92;;;13.80;99.90;;;;;;5122327;27;20049;-80
2022/10/15 09:41:15;;;;;;;53.22;34.83;;;12.80;99.90;;;;;;5121774;27;20118;-82
2022/10/15 09:43:44;;;;;;;48.83;33.20;;;12.80;99.90;;;;;;5146285;27;20073;-82
2022/10/15 09:46:10;;;;;;;55.67;36.33;;;14.20;99.90;;;;;;5148297;27;20057;-82
2022/10/15 09:49:00;;;;;;;62.88;37.03;;;13.60;99.90;;;;;;5150409;27;20055;-80
2022/10/15 09:52:22;;;;;;;62.47;37.20;;;12.80;99.90;;;;;;5121311;27;20041;-82
2022/10/15 09:55:17;;;;;;;51.67;34.25;;;12.70;99.90;;;;;;5115123;27;20065;-82
2022/10/15 09:57:50;;;;;;;63.88;37.55;;;12.70;99.90;;;;;;5109555;27;20046;-84
2022/10/15 10:00:16;;;;;;;57.45;35.83;;;12.70;99.90;;;;;;5095579;27;20508;-84
2022/10/15 10:02:42;;;;;;;61.97;37.35;;;13.20;99.90;;;;;;5129369;27;20046;-84
2022/10/15 10:05:29;;;;;;;54.58;36.20;;;12.80;99.90;;;;;;5127389;27;20414;-82
2022/10/15 10:08:18;;;;;;;59.00;37.08;;;12.70;99.90;;;;;;5146605;27;20039;-84
2022/10/15 10:10:52;;;;;;;55.80;33.10;;;12.70;99.90;;;;;;5148469;27;20490;-83
2022/10/15 10:13:27;;;;;;;56.83;36.08;;;12.80;99.90;;;;;;5104084;27;20546;-85
2022/10/15 10:16:01;;;;;;;52.42;33.30;;;12.80;99.90;;;;;;5105502;27;20494;-80
2022/10/15 10:18:31;;;;;;;56.45;33.75;;;12.80;99.90;;;;;;5116437;27;20573;-84
2022/10/15 10:21:02;;;;;;;65.38;38.72;;;12.80;99.90;;;;;;5123658;27;20034;-83
2022/10/15 10:23:33;;;;;;;51.17;32.30;;;12.80;99.90;;;;;;5131553;27;20074;-84
2022/10/15 10:26:04;;;;;;;52.42;33.40;;;12.80;99.90;;;;;;5125865;27;20384;-80
2022/10/15 10:28:33;;;;;;;57.03;33.95;;;14.20;99.90;;;;;;5131654;27;20084;-84
2022/10/15 10:31:05;;;;;;;49.47;31.67;;;12.90;99.90;;;;;;5123786;27;20051;-80
2022/10/15 10:33:42;;;;;;;48.25;30.50;;;12.90;99.90;;;;;;5131987;27;20054;-81
2022/10/15 10:36:25;;;;;;;48.00;30.75;;;14.00;99.90;;;;;;5141845;27;20034;-81
2022/10/15 10:39:25;;;;;;;47.70;30.58;;;13.00;99.90;;;;;;5131345;27;20098;-81
2022/10/15 10:42:01;;;;;;;53.53;37.17;;;13.00;99.90;;;;;;5118744;27;20132;-82
2022/10/15 10:44:31;;;;;;;57.47;29.48;;;13.00;99.90;;;;;;5125884;27;20035;-83
2022/10/15 10:47:24;;;;;;;38.07;26.87;;;13.20;99.90;;;;;;5117332;27;20087;-81
2022/10/15 10:49:51;;;;;;;38.88;26.10;;;13.20;99.90;;;;;;5101504;27;20035;-80
2022/10/15 10:52:37;;;;;;;40.00;25.75;;;13.30;99.90;;;;;;5113759;27;20038;-79
2022/10/15 10:55:19;;;;;;;32.75;23.80;;;13.30;99.90;;;;;;5101882;27;20027;-83
2022/10/15 10:57:48;;;;;;;27.83;21.42;;;13.30;99.90;;;;;;5148606;27;20038;-82
2022/10/15 11:00:37;;;;;;;30.02;22.77;;;14.50;99.90;;;;;;5128666;27;20478;-83
2022/10/15 11:03:04;;;;;;;33.17;22.55;;;13.40;99.90;;;;;;5145975;27;20130;-84
2022/10/15 11:05:33;;;;;;;27.83;20.63;;;13.40;99.90;;;;;;5100136;27;20031;-81
2022/10/15 11:08:20;;;;;;;29.63;21.52;;;13.40;99.90;;;;;;5122850;27;20051;-86
2022/10/15 11:11:34;;;;;;;23.85;18.52;;;13.40;99.90;;;;;;5146251;27;20050;-83
2022/10/15 11:14:04;;;;;;;30.30;19.92;;;13.50;99.90;;;;;;5121605;27;20099;-85
2022/10/15 11:16:52;;;;;;;25.25;18.65;;;13.90;99.90;;;;;;5145551;27;20085;-84
2022/10/15 11:19:31;;;;;;;24.92;17.33;;;13.90;99.90;;;;;;5149835;27;20039;-86
2022/10/15 11:22:23;;;;;;;23.17;17.60;;;13.60;99.90;;;;;;5100276;27;20043;-84
2022/10/15 11:25:06;;;;;;;20.25;16.25;;;13.60;99.90;;;;;;5112641;27;20053;-85
2022/10/15 11:27:37;;;;;;;21.67;15.98;;;13.70;99.90;;;;;;5101517;27;20047;-81
2022/10/15 11:30:27;;;;;;;19.85;16.35;;;13.70;99.90;;;;;;5141122;27;20050;-81
2022/10/15 11:33:13;;;;;;;19.45;15.82;;;13.70;99.90;;;;;;5145138;27;20108;-81
2022/10/15 11:35:51;;;;;;;23.20;16.83;;;13.80;99.90;;;;;;5103790;27;20047;-82
2022/10/15 11:38:23;;;;;;;20.73;16.55;;;13.80;99.90;;;;;;5131299;27;20508;-81
2022/10/15 11:41:10;;;;;;;22.20;16.45;;;13.70;99.90;;;;;;5119439;27;20472;-81
2022/10/15 11:44:01;;;;;;;24.50;16.73;;;13.80;99.90;;;;;;5126368;27;20038;-82
2022/10/15 11:46:47;;;;;;;25.75;16.67;;;13.90;99.90;;;;;;5121580;27;20047;-80
2022/10/15 11:49:16;;;;;;;21.23;17.08;;;13.90;99.90;;;;;;5126721;27;20392;-80
2022/10/15 11:52:03;;;;;;;22.30;16.38;;;13.90;99.90;;;;;;5129687;27;20050;-80
2022/10/15 11:54:57;;;;;;;21.02;18.20;;;13.90;99.90;;;;;;5111951;27;20435;-82
2022/10/15 11:57:24;;;;;;;20.13;17.23;;;14.00;99.90;;;;;;5122094;27;20407;-81
2022/10/15 12:00:18;;;;;;;23.75;17.65;;;14.00;99.90;;;;;;5122860;27;20126;-81
2022/10/15 12:02:46;;;;;;;21.20;17.88;;;14.10;99.90;;;;;;5129486;27;20714;-80
2022/10/15 12:05:20;;;;;;;19.85;17.75;;;14.10;99.90;;;;;;5105784;27;20439;-83
2022/10/15 12:07:48;;;;;;;23.85;18.83;;;14.20;99.90;;;;;;5131227;27;20046;-83
2022/10/15 12:10:42;;;;;;;20.02;17.63;;;14.30;99.90;;;;;;5103473;27;20034;-84
2022/10/15 12:13:31;;;;;;;21.25;17.40;;;14.20;99.90;;;;;;5153198;27;20109;-85
2022/10/15 12:16:19;;;;;;;20.85;16.75;;;14.30;99.90;;;;;;5127908;27;20154;-86
2022/10/15 12:18:56;;;;;;;19.90;17.40;;;14.40;99.90;;;;;;5132397;27;20042;-81
2022/10/15 12:21:38;;;;;;;18.13;15.15;;;14.40;99.90;;;;;;5135110;27;20047;-85
2022/10/15 12:24:25;;;;;;;19.10;16.20;;;14.40;99.90;;;;;;5106977;27;20058;-85
2022/10/15 12:26:50;;;;;;;21.05;16.33;;;14.40;99.90;;;;;;5152537;27;20123;-86
2022/10/15 12:29:23;;;;;;;19.98;16.90;;;14.40;99.90;;;;;;5151131;27;20072;-86
2022/10/15 12:31:55;;;;;;;18.67;16.40;;;14.40;99.90;;;;;;5153070;27;20361;-84
2022/10/15 12:34:27;;;;;;;17.02;15.23;;;14.40;99.90;;;;;;5150076;27;20038;-83
2022/10/15 12:37:05;;;;;;;19.25;17.20;;;14.40;99.90;;;;;;5151769;27;20486;-82
2022/10/15 12:39:32;;;;;;;18.85;16.27;;;14.40;99.90;;;;;;5105544;27;20057;-81
2022/10/15 12:41:59;;;;;;;19.45;16.10;;;14.40;99.90;;;;;;5126286;27;20035;-81
2022/10/15 12:44:31;;;;;;;20.05;16.27;;;14.40;99.90;;;;;;5132767;27;20042;-83
2022/10/15 12:46:57;;;;;;;21.40;16.88;;;14.40;99.90;;;;;;5103595;27;20431;-81
2022/10/15 12:49:29;;;;;;;24.63;17.50;;;14.30;99.90;;;;;;5122561;27;20039;-85